Airfield :
LOGIN :

Register | Disclaimer

   EN    FR    IT 

 










Legend :    VFR   Marginal VFR   IFR   Intensive IFR   Very Intensive IFR
Visi :
Ceiling :
>= 8 km
>= 3000ft
5 to 8 km
1000 to 3000 ft
1500m to 5 km
500 to 1000 ft
800 to 1500m
200 to 500 ft
< 800m
< 200 ft
Symbols :   Thunderstorms  Fog  Heavy snow  Heavy precipitations  Wind > 20 kt
SIGMETs :     Misc.  Thunderstorms  Icing  Turbulence  Mountain Waves  Volcanic Ashes






- Airport Elevation : 1674 ft
- IATA code : BRN


LSZB - Bern Belp

CURRENT METAR :
  • 280720Z VRB03KT 2200 R14/0900U -SN FEW002 SCT008 BKN016 01/01 Q1011 R14/19//95 NOSIG

EXPIRED METARs :
  • 280650Z 31003KT 1500 R14/0650U -RA FEW005 SCT014 BKN016 01/01 Q1011 R14/1///95 NOSIG
  • 280620Z 14004KT 110V170 1500 BR FEW002 SCT015 BKN018 01/01 Q1012 RESN NOSIG
  • 280550Z AUTO VRB01KT 0350 R14/0400U FG VV001 01/01 Q1012 RESN
  • 280520Z AUTO VRB02KT 0800 R14/0400U FZDZFG FEW003 SCT040 01/01 Q1013 RESN
  • 280450Z AUTO VRB01KT 1300 R14/0400U -SN VV009 01/01 Q1013 REFZDZ

TAF AMD TAF LSZB
Valid from the 28 at 06:00 until the 28 at 15:00 UTC


280649Z 2806/2815 14004KT 1500 -RA BR FEW002 SCT015 BKN018
BECMG 2807/2808 3000
TEMPO 2807/2812 RA
BECMG 2809/2812 26012KT 6000
TEMPO 2810/2815 26015G27KT
ATIS : +41 22 417 40 76



MET'MAP, your aeronautical weather chart ! - Copyright ORBIFLY December 2007 - Disclaimer

ORBIFLY MET'MAP TEAM :

Programming & Development : Alexandra Zaïnal
Concept & original design : Baudouin d'Aumeries
Assistance for programming : Marc-Olivier Méhu
Technical & hardware support : Manuel Goepfert

Contact : metmap@orbifly.com




SOURCES & CREDITS :

   NOAA